Time;durP1;ratioP1;P1;durP2;ratioP2;P2;SDS_P1;SDS_P2;PMS_P1;PMS_P2;Temp;Humidity;BMP_temperature;BMP_pressure;BME280_temperature;BME280_humidity;BME280_pressure;Samples;Min_cycle;Max_cycle;Signal;HPM_P1;HPM_P2
2021/12/12 00:01:29;;;;;;;31.02;14.80;;;3.40;99.90;;;;;;5049990;28;20045;-79
2021/12/12 00:04:10;;;;;;;26.08;13.75;;;3.50;99.90;;;;;;5049694;28;20049;-80
2021/12/12 00:06:39;;;;;;;42.13;21.15;;;3.40;99.90;;;;;;5032981;28;20041;-79
2021/12/12 00:09:10;;;;;;;35.80;15.77;;;3.50;99.90;;;;;;5049021;28;20099;-79
2021/12/12 00:11:36;;;;;;;29.08;14.90;;;3.50;99.90;;;;;;5031719;28;20098;-80
2021/12/12 00:14:22;;;;;;;39.65;20.73;;;3.50;99.90;;;;;;5032385;28;20470;-79
2021/12/12 00:16:48;;;;;;;32.88;18.83;;;3.50;99.90;;;;;;5032504;28;20073;-80
2021/12/12 00:19:14;;;;;;;29.25;15.98;;;3.70;99.90;;;;;;5032382;28;20049;-80
2021/12/12 00:21:43;;;;;;;39.45;17.48;;;3.50;99.90;;;;;;5015666;28;20487;-79
2021/12/12 00:24:11;;;;;;;27.27;14.13;;;3.60;99.90;;;;;;5032246;28;20044;-81
2021/12/12 00:26:38;;;;;;;48.17;24.90;;;3.60;99.90;;;;;;5031781;28;20416;-80
2021/12/12 00:29:07;;;;;;;27.73;13.55;;;3.50;99.90;;;;;;4999443;28;20056;-80
2021/12/12 00:31:33;;;;;;;36.65;18.55;;;3.50;99.90;;;;;;5032139;28;20049;-81
2021/12/12 00:34:00;;;;;;;30.70;15.82;;;3.60;99.90;;;;;;5031937;28;20049;-80
2021/12/12 00:36:27;;;;;;;25.48;13.80;;;3.60;99.90;;;;;;5032294;28;20048;-78
2021/12/12 00:39:05;;;;;;;33.28;17.13;;;3.60;99.90;;;;;;5031635;28;20045;-79
2021/12/12 00:41:41;;;;;;;41.08;20.08;;;3.60;99.90;;;;;;5015093;28;20051;-80
2021/12/12 00:44:09;;;;;;;36.33;18.58;;;3.60;99.90;;;;;;5048455;28;20045;-80
2021/12/12 00:46:35;;;;;;;36.63;19.63;;;3.60;99.90;;;;;;5031311;28;20046;-81
2021/12/12 00:49:01;;;;;;;29.70;15.27;;;3.60;99.90;;;;;;5048490;28;20053;-80
2021/12/12 00:51:32;;;;;;;20.83;12.38;;;3.60;99.90;;;;;;5031732;28;20040;-79
2021/12/12 00:53:58;;;;;;;28.65;16.08;;;3.70;99.90;;;;;;5015325;28;20556;-79
2021/12/12 00:56:25;;;;;;;33.13;17.13;;;3.70;99.90;;;;;;5048166;28;20045;-80
2021/12/12 00:58:50;;;;;;;29.30;16.63;;;3.70;99.90;;;;;;5015214;28;20053;-80
2021/12/12 01:01:27;;;;;;;44.95;24.42;;;3.70;99.90;;;;;;5047770;28;20092;-80
2021/12/12 01:03:58;;;;;;;46.42;24.02;;;3.70;99.90;;;;;;5031541;28;20053;-79
2021/12/12 01:06:25;;;;;;;32.45;16.98;;;3.70;99.90;;;;;;5029015;28;20053;-79
2021/12/12 01:08:58;;;;;;;50.38;29.10;;;3.70;99.90;;;;;;5048123;28;20041;-79
2021/12/12 01:11:46;;;;;;;58.20;31.87;;;3.70;99.90;;;;;;5030860;28;20396;-79
2021/12/12 01:14:15;;;;;;;63.50;30.95;;;3.70;99.90;;;;;;5015174;28;20045;-79
2021/12/12 01:16:50;;;;;;;64.10;32.67;;;3.70;99.90;;;;;;5014220;28;20049;-79
2021/12/12 01:19:38;;;;;;;73.55;33.72;;;3.80;99.90;;;;;;5031348;28;20049;-79
2021/12/12 01:22:19;;;;;;;62.45;31.08;;;3.70;99.90;;;;;;5030974;28;20057;-79
2021/12/12 01:24:48;;;;;;;51.38;28.33;;;3.60;99.90;;;;;;5030952;28;20061;-81
2021/12/12 01:27:14;;;;;;;57.88;30.05;;;3.70;99.90;;;;;;5031078;28;20507;-81
2021/12/12 01:29:41;;;;;;;32.38;17.25;;;3.70;99.90;;;;;;5047801;28;20083;-80
2021/12/12 01:32:12;;;;;;;55.00;27.40;;;3.70;99.90;;;;;;4997963;28;20041;-80
2021/12/12 01:34:39;;;;;;;56.88;29.70;;;3.70;99.90;;;;;;5048061;28;20045;-81
2021/12/12 01:40:04;;;;;;;69.63;35.10;;;3.80;99.90;;;;;;5031472;28;20050;-81
2021/12/12 01:42:36;;;;;;;64.55;34.13;;;3.80;99.90;;;;;;5028543;28;20494;-80
2021/12/12 01:45:12;;;;;;;78.70;33.30;;;3.80;99.90;;;;;;5030843;28;20503;-81
2021/12/12 01:47:40;;;;;;;60.17;32.15;;;3.80;99.90;;;;;;5030640;28;20069;-81
2021/12/12 01:50:18;;;;;;;50.65;24.80;;;3.80;99.90;;;;;;5031068;28;20379;-80
2021/12/12 01:52:45;;;;;;;40.50;18.88;;;3.80;99.90;;;;;;5030531;28;20052;-79
2021/12/12 01:55:22;;;;;;;64.28;24.73;;;3.90;99.90;;;;;;4998579;28;21376;-80
2021/12/12 01:57:49;;;;;;;37.53;18.98;;;3.90;99.90;;;;;;5014240;28;20545;-81
2021/12/12 02:00:24;;;;;;;50.22;24.20;;;3.90;99.90;;;;;;5013873;28;20085;-79
2021/12/12 02:02:50;;;;;;;31.73;14.82;;;4.00;99.90;;;;;;5014538;28;20044;-79
2021/12/12 02:05:20;;;;;;;42.20;17.20;;;3.90;99.90;;;;;;5047458;28;20049;-79
2021/12/12 02:08:03;;;;;;;44.13;22.17;;;3.90;99.90;;;;;;5014807;28;20196;-79
2021/12/12 02:10:37;;;;;;;46.17;25.47;;;4.00;99.90;;;;;;5031675;28;20052;-81
2021/12/12 02:13:05;;;;;;;29.52;14.30;;;4.00;99.90;;;;;;5031559;28;20395;-79
2021/12/12 02:15:34;;;;;;;37.80;16.45;;;4.00;99.90;;;;;;5031350;28;20052;-81
2021/12/12 02:18:05;;;;;;;53.30;22.67;;;4.00;99.90;;;;;;5047747;28;20037;-79
2021/12/12 02:20:39;;;;;;;65.03;32.55;;;4.10;99.90;;;;;;5031576;28;20570;-81
2021/12/12 02:23:24;;;;;;;53.00;24.05;;;4.00;99.90;;;;;;5048398;28;20063;-79
2021/12/12 02:37:00;;;;;;;44.92;24.80;;;4.10;99.90;;;;;;5037356;28;20119;-81
2021/12/12 02:39:26;;;;;;;36.17;17.77;;;4.20;99.90;;;;;;5051689;28;20085;-81
2021/12/12 02:42:02;;;;;;;49.03;26.90;;;4.20;99.90;;;;;;5018405;28;20076;-81
2021/12/12 02:44:31;;;;;;;51.13;28.75;;;4.30;99.90;;;;;;5051270;28;20045;-81
2021/12/12 02:47:00;;;;;;;57.05;29.05;;;4.30;99.90;;;;;;5034601;28;20050;-78
2021/12/12 02:52:13;;;;;;;56.78;27.80;;;4.30;99.90;;;;;;5051388;28;20045;-78
2021/12/12 02:54:40;;;;;;;44.15;20.77;;;4.40;99.90;;;;;;5051145;28;20061;-79
2021/12/12 02:57:07;;;;;;;19.05;11.30;;;4.60;99.90;;;;;;5051024;28;20049;-82
2021/12/12 02:59:35;;;;;;;32.63;14.35;;;4.40;99.90;;;;;;5034357;28;20049;-78
2021/12/12 03:02:09;;;;;;;49.22;23.30;;;4.50;99.90;;;;;;5034527;28;20041;-79
2021/12/12 03:04:35;;;;;;;25.20;11.98;;;4.50;99.90;;;;;;5051008;28;20583;-81
2021/12/12 03:07:05;;;;;;;25.65;14.02;;;4.50;99.90;;;;;;5034270;28;20083;-79
2021/12/12 03:09:37;;;;;;;26.77;12.80;;;4.50;99.90;;;;;;5050831;28;20111;-82
2021/12/12 03:12:08;;;;;;;28.58;15.23;;;4.60;99.90;;;;;;5034158;28;20056;-79
2021/12/12 03:14:35;;;;;;;26.10;13.07;;;4.60;99.90;;;;;;5050975;28;20500;-81
2021/12/12 03:17:06;;;;;;;23.55;10.00;;;4.60;99.90;;;;;;5033939;28;20411;-82
2021/12/12 03:19:32;;;;;;;14.90;8.50;;;4.70;99.90;;;;;;5050757;28;20124;-81
2021/12/12 03:21:58;;;;;;;24.10;13.50;;;4.60;99.90;;;;;;5034143;28;20408;-79
2021/12/12 03:24:27;;;;;;;12.68;7.90;;;4.60;99.90;;;;;;5017489;28;20042;-81
2021/12/12 03:26:59;;;;;;;27.38;14.93;;;4.50;99.90;;;;;;5033764;28;20057;-82
2021/12/12 03:29:27;;;;;;;26.30;13.77;;;4.50;99.90;;;;;;5017735;28;20116;-81
2021/12/12 03:31:58;;;;;;;17.55;8.02;;;4.50;99.90;;;;;;5050307;28;20099;-78
2021/12/12 03:34:28;;;;;;;16.08;10.15;;;4.60;99.90;;;;;;5016583;28;20049;-78
2021/12/12 03:36:54;;;;;;;27.23;13.27;;;4.50;99.90;;;;;;5034120;28;20384;-78
2021/12/12 03:39:27;;;;;;;16.33;8.90;;;4.60;99.90;;;;;;5034049;28;20213;-79
2021/12/12 03:41:54;;;;;;;21.73;9.77;;;4.70;99.90;;;;;;5050257;28;20052;-82
2021/12/12 03:44:23;;;;;;;14.65;7.57;;;4.70;99.90;;;;;;5033496;28;20042;-78
2021/12/12 03:46:54;;;;;;;30.50;17.02;;;4.60;99.90;;;;;;5050006;28;20072;-78
2021/12/12 03:49:20;;;;;;;13.05;8.80;;;4.70;99.90;;;;;;5033353;28;20038;-78
2021/12/12 03:51:47;;;;;;;16.85;9.82;;;4.70;99.90;;;;;;5033530;28;20377;-81
2021/12/12 03:54:14;;;;;;;14.50;8.75;;;4.70;99.90;;;;;;5033523;28;20492;-78
2021/12/12 03:56:41;;;;;;;35.97;21.13;;;4.80;99.90;;;;;;5033472;28;20507;-81
2021/12/12 03:59:08;;;;;;;13.20;8.55;;;4.80;99.90;;;;;;5049774;28;20072;-81
2021/12/12 04:01:37;;;;;;;12.20;8.85;;;4.70;99.90;;;;;;5049778;28;20045;-80
2021/12/12 04:04:11;;;;;;;11.82;7.50;;;4.80;99.90;;;;;;5033342;28;20399;-78
2021/12/12 04:06:37;;;;;;;14.23;7.18;;;4.80;99.90;;;;;;5049810;28;20111;-81
2021/12/12 04:09:06;;;;;;;12.35;6.95;;;4.70;99.90;;;;;;5049749;28;20128;-78
2021/12/12 04:11:39;;;;;;;14.63;8.32;;;5.10;99.90;;;;;;5049473;28;20046;-81
2021/12/12 04:14:06;;;;;;;17.40;12.35;;;4.70;99.90;;;;;;5032958;28;20045;-78
2021/12/12 04:16:36;;;;;;;10.57;7.32;;;4.70;99.90;;;;;;5033073;28;20049;-82
2021/12/12 04:19:04;;;;;;;18.73;10.75;;;4.60;99.90;;;;;;5033240;28;20480;-81
2021/12/12 04:21:30;;;;;;;30.45;18.42;;;4.60;99.90;;;;;;5049637;28;20496;-81
2021/12/12 04:23:56;;;;;;;15.35;8.15;;;4.60;99.90;;;;;;5016551;28;20056;-81
2021/12/12 04:26:28;;;;;;;14.32;8.07;;;4.60;99.90;;;;;;5049095;28;20103;-78
2021/12/12 04:29:02;;;;;;;16.17;9.93;;;4.70;99.90;;;;;;5016145;28;20055;-81
2021/12/12 04:31:29;;;;;;;9.48;6.80;;;4.70;99.90;;;;;;5049280;28;20132;-81
2021/12/12 04:33:55;;;;;;;16.40;9.25;;;4.60;99.90;;;;;;5032527;28;20059;-78
2021/12/12 04:36:40;;;;;;;9.57;5.50;;;4.60;99.90;;;;;;5015969;28;20060;-78
2021/12/12 04:39:08;;;;;;;6.82;4.75;;;4.60;99.90;;;;;;5049050;28;20077;-77
2021/12/12 04:41:34;;;;;;;12.43;7.15;;;4.70;99.90;;;;;;5048994;28;20115;-81
2021/12/12 04:44:00;;;;;;;7.57;4.90;;;4.70;99.90;;;;;;5032618;28;20531;-81
2021/12/12 04:49:54;;;;;;;10.00;7.20;;;4.70;99.90;;;;;;5031447;28;20072;-78
2021/12/12 04:52:03;;;;;;;23.85;14.65;;;4.70;99.90;;;;;;5032236;28;20075;-78
2021/12/12 04:54:34;;;;;;;10.63;7.78;;;4.70;99.90;;;;;;5048772;28;20045;-80
2021/12/12 04:57:04;;;;;;;8.30;4.80;;;4.70;99.90;;;;;;5048819;28;20052;-81
2021/12/12 04:59:35;;;;;;;6.13;4.57;;;4.80;99.90;;;;;;5048788;28;20077;-77
2021/12/12 05:02:10;;;;;;;11.77;7.80;;;4.80;99.90;;;;;;5032388;28;20576;-77
2021/12/12 05:04:41;;;;;;;15.85;11.35;;;4.80;99.90;;;;;;5032001;28;20041;-78
2021/12/12 05:07:12;;;;;;;14.50;10.43;;;4.70;99.90;;;;;;5048492;28;20041;-81
2021/12/12 05:10:06;;;;;;;12.20;6.38;;;4.80;99.90;;;;;;5032098;28;20045;-81
2021/12/12 05:12:43;;;;;;;11.10;7.13;;;4.80;99.90;;;;;;5032010;28;20085;-81
2021/12/12 05:15:15;;;;;;;15.05;9.00;;;4.90;99.90;;;;;;5031823;28;20041;-77
2021/12/12 05:17:55;;;;;;;4.95;3.88;;;4.90;99.90;;;;;;5048184;28;20050;-77
2021/12/12 05:20:43;;;;;;;21.88;13.32;;;4.90;99.90;;;;;;5048752;28;20041;-77
2021/12/12 05:23:14;;;;;;;13.07;10.20;;;4.90;99.90;;;;;;5048659;28;20387;-81
2021/12/12 05:26:03;;;;;;;10.52;5.53;;;4.80;99.90;;;;;;5048139;28;20065;-81
2021/12/12 05:28:33;;;;;;;13.63;8.25;;;4.90;99.90;;;;;;5031360;28;20129;-81
2021/12/12 05:31:00;;;;;;;12.90;8.02;;;4.90;99.90;;;;;;5048235;28;20103;-77
2021/12/12 05:33:30;;;;;;;5.95;4.72;;;5.00;99.90;;;;;;5015216;28;20133;-78
2021/12/12 05:35:56;;;;;;;10.50;6.40;;;5.00;99.90;;;;;;5031723;28;20184;-81
2021/12/12 05:38:23;;;;;;;12.00;8.88;;;5.00;99.90;;;;;;5031483;28;20045;-77
2021/12/12 05:40:51;;;;;;;16.95;10.40;;;5.10;99.90;;;;;;5031559;28;20041;-77
2021/12/12 05:43:18;;;;;;;11.88;9.88;;;5.20;99.90;;;;;;5031575;28;20091;-78
2021/12/12 05:45:45;;;;;;;18.08;10.50;;;5.10;99.90;;;;;;5048186;28;20056;-80
2021/12/12 05:48:11;;;;;;;7.15;5.90;;;5.10;99.90;;;;;;5014928;28;20125;-81
2021/12/12 05:50:40;;;;;;;15.02;9.90;;;5.10;99.90;;;;;;5031377;28;20042;-81
2021/12/12 05:53:08;;;;;;;11.98;8.13;;;5.20;99.90;;;;;;5031270;28;20100;-77
2021/12/12 05:55:35;;;;;;;8.15;5.88;;;5.20;99.90;;;;;;5031528;28;20046;-81
2021/12/12 05:58:05;;;;;;;18.70;12.18;;;5.30;99.90;;;;;;5050280;28;20083;-78
2021/12/12 06:00:55;;;;;;;8.57;4.85;;;5.30;99.90;;;;;;5052034;28;20073;-78
2021/12/12 06:03:24;;;;;;;9.38;6.22;;;5.40;99.90;;;;;;5034923;28;20064;-81
2021/12/12 06:05:52;;;;;;;8.25;6.07;;;5.30;99.90;;;;;;5035155;28;20053;-78
2021/12/12 06:08:20;;;;;;;17.08;12.63;;;5.40;99.90;;;;;;5035585;28;20548;-79
2021/12/12 06:10:46;;;;;;;5.68;4.32;;;5.30;99.90;;;;;;5052116;28;20461;-81
2021/12/12 06:13:16;;;;;;;13.82;10.88;;;5.40;99.90;;;;;;5051999;28;20427;-81
2021/12/12 06:15:45;;;;;;;8.13;5.53;;;5.40;99.90;;;;;;5051793;28;20045;-78
2021/12/12 06:18:12;;;;;;;16.80;11.90;;;5.40;99.90;;;;;;5034978;28;20053;-78
2021/12/12 06:20:40;;;;;;;18.10;11.10;;;5.40;99.90;;;;;;5035082;28;20052;-81
2021/12/12 06:23:08;;;;;;;6.22;5.50;;;5.60;99.90;;;;;;5051546;28;20054;-81
2021/12/12 06:25:34;;;;;;;16.65;12.07;;;5.50;99.90;;;;;;5051206;28;20069;-81
2021/12/12 06:27:59;;;;;;;19.88;12.02;;;5.60;99.90;;;;;;5051527;28;20053;-81
2021/12/12 06:30:25;;;;;;;10.07;6.45;;;5.50;99.90;;;;;;5034933;28;20046;-81
2021/12/12 06:32:52;;;;;;;14.90;11.05;;;5.40;99.90;;;;;;5051319;28;20044;-78
2021/12/12 06:35:20;;;;;;;18.50;13.38;;;5.50;99.90;;;;;;5035162;28;20500;-78
2021/12/12 06:37:46;;;;;;;4.45;3.58;;;5.50;99.90;;;;;;5034867;28;20451;-82
2021/12/12 06:40:15;;;;;;;8.57;7.00;;;5.50;99.90;;;;;;5051346;28;20046;-81
2021/12/12 06:42:41;;;;;;;12.10;8.90;;;5.60;99.90;;;;;;5034833;28;20056;-81
2021/12/12 06:45:10;;;;;;;14.98;10.80;;;5.50;99.90;;;;;;5034506;28;20091;-79
2021/12/12 06:47:36;;;;;;;11.48;8.10;;;5.50;99.90;;;;;;5035200;28;20480;-82
2021/12/12 06:50:04;;;;;;;16.33;10.80;;;5.60;99.90;;;;;;5051276;28;20037;-78
2021/12/12 06:52:31;;;;;;;17.17;10.77;;;5.60;99.90;;;;;;5001839;28;20103;-78
2021/12/12 06:54:57;;;;;;;9.07;6.40;;;5.60;99.90;;;;;;5051158;28;20048;-78
2021/12/12 06:57:23;;;;;;;10.32;7.43;;;5.70;99.90;;;;;;5017871;28;20037;-78
2021/12/12 06:59:50;;;;;;;14.57;8.32;;;5.70;99.90;;;;;;5034151;28;20045;-77
2021/12/12 07:02:16;;;;;;;15.18;10.23;;;5.70;99.90;;;;;;5050909;28;20052;-82
2021/12/12 07:04:44;;;;;;;23.75;15.60;;;5.70;99.90;;;;;;5050811;28;20045;-82
2021/12/12 07:07:12;;;;;;;7.60;6.20;;;5.60;99.90;;;;;;5051006;28;20171;-78
2021/12/12 07:09:39;;;;;;;17.48;10.15;;;5.80;99.90;;;;;;5016787;28;20131;-81
2021/12/12 07:12:09;;;;;;;31.27;19.23;;;5.70;99.90;;;;;;5050798;28;20045;-78
2021/12/12 07:14:37;;;;;;;14.95;9.27;;;5.80;99.90;;;;;;5050754;28;20139;-82
2021/12/12 07:17:03;;;;;;;22.48;13.52;;;5.70;99.90;;;;;;5034169;28;20102;-81
2021/12/12 07:19:29;;;;;;;15.50;10.57;;;5.80;99.90;;;;;;5034026;28;20053;-82
2021/12/12 07:21:59;;;;;;;26.73;17.35;;;5.80;99.90;;;;;;5050659;28;20385;-82
2021/12/12 07:24:30;;;;;;;46.30;23.33;;;5.80;99.90;;;;;;5033039;28;20065;-78
2021/12/12 07:26:58;;;;;;;38.05;20.90;;;5.80;99.90;;;;;;5033410;28;20499;-82
2021/12/12 07:29:25;;;;;;;27.42;16.00;;;5.90;99.90;;;;;;5016539;28;20048;-82
2021/12/12 07:31:51;;;;;;;20.30;12.48;;;5.90;99.90;;;;;;5017378;28;20407;-78
2021/12/12 07:34:17;;;;;;;41.88;21.92;;;6.00;99.90;;;;;;5032793;28;20064;-78
2021/12/12 07:36:50;;;;;;;14.52;10.10;;;6.00;99.90;;;;;;5033161;28;20045;-78
2021/12/12 07:39:17;;;;;;;19.80;12.38;;;6.00;99.90;;;;;;5049826;28;20041;-79
2021/12/12 07:41:47;;;;;;;43.72;21.20;;;6.00;99.90;;;;;;5033457;28;20041;-82
2021/12/12 07:44:14;;;;;;;30.58;15.90;;;6.00;99.90;;;;;;5032965;28;20495;-82
2021/12/12 07:46:43;;;;;;;32.45;17.58;;;6.00;99.90;;;;;;5013529;28;20065;-82
2021/12/12 07:49:09;;;;;;;40.53;22.35;;;6.00;99.90;;;;;;5029635;28;20103;-78
2021/12/12 07:51:39;;;;;;;47.78;24.48;;;6.00;99.90;;;;;;5033181;28;20049;-78
2021/12/12 07:54:07;;;;;;;13.07;7.88;;;6.00;99.90;;;;;;5049426;28;20071;-82
2021/12/12 07:56:41;;;;;;;13.85;9.13;;;6.10;99.90;;;;;;5049488;28;20419;-81
2021/12/12 07:59:08;;;;;;;32.55;18.63;;;6.20;99.90;;;;;;5049905;28;20049;-82
2021/12/12 08:01:36;;;;;;;22.92;13.55;;;6.10;99.90;;;;;;5049229;28;20499;-78
2021/12/12 08:04:04;;;;;;;21.63;11.57;;;6.20;99.90;;;;;;4999721;28;20072;-82
2021/12/12 08:06:30;;;;;;;30.45;16.38;;;6.20;99.90;;;;;;5049145;28;20095;-82
2021/12/12 08:08:56;;;;;;;32.45;17.63;;;6.20;99.90;;;;;;5049221;28;20357;-82
2021/12/12 08:11:27;;;;;;;17.35;9.98;;;6.10;99.90;;;;;;5049638;28;20528;-82
2021/12/12 08:13:53;;;;;;;14.25;8.65;;;6.30;99.90;;;;;;5016106;28;20065;-78
2021/12/12 08:16:20;;;;;;;28.45;15.05;;;6.20;99.90;;;;;;5032696;28;20576;-79
2021/12/12 08:18:47;;;;;;;14.15;8.25;;;6.20;99.90;;;;;;5031943;28;20045;-82
2021/12/12 08:21:13;;;;;;;33.20;17.27;;;6.30;99.90;;;;;;5032670;28;20522;-78
2021/12/12 08:23:40;;;;;;;39.50;19.77;;;6.30;99.90;;;;;;5049112;28;20095;-78
2021/12/12 08:26:07;;;;;;;31.83;17.38;;;6.40;99.90;;;;;;5031565;28;20172;-82
2021/12/12 08:28:35;;;;;;;31.63;16.50;;;6.40;99.90;;;;;;5031877;28;20037;-82
2021/12/12 08:31:01;;;;;;;19.13;10.95;;;6.40;99.90;;;;;;5048814;28;20124;-78
2021/12/12 08:33:28;;;;;;;31.88;14.82;;;6.40;99.90;;;;;;5031913;28;20122;-82
2021/12/12 08:35:54;;;;;;;20.45;10.57;;;6.40;99.90;;;;;;5031759;28;20052;-82
2021/12/12 08:38:20;;;;;;;40.95;19.85;;;6.50;99.90;;;;;;5031357;28;20051;-82
2021/12/12 08:40:51;;;;;;;31.25;15.32;;;6.50;99.90;;;;;;5031734;28;20040;-78
2021/12/12 08:43:21;;;;;;;42.30;21.30;;;6.40;99.90;;;;;;5030882;28;20033;-82
2021/12/12 08:45:51;;;;;;;14.07;8.85;;;6.50;99.90;;;;;;5048719;28;20125;-78
2021/12/12 08:48:19;;;;;;;23.15;13.02;;;6.40;99.90;;;;;;5015309;28;20503;-78
2021/12/12 08:50:49;;;;;;;31.20;15.95;;;6.50;99.90;;;;;;5032115;28;20096;-79
2021/12/12 08:53:17;;;;;;;38.75;18.20;;;6.60;99.90;;;;;;5048386;28;20495;-83
2021/12/12 08:55:45;;;;;;;26.25;14.73;;;6.50;99.90;;;;;;5031598;28;20518;-78
2021/12/12 08:58:15;;;;;;;74.10;30.42;;;6.60;99.90;;;;;;5031493;28;20041;-79
2021/12/12 09:01:04;;;;;;;54.17;24.42;;;6.60;99.90;;;;;;5032279;28;20531;-79
2021/12/12 09:03:49;;;;;;;60.03;24.92;;;6.60;99.90;;;;;;5032007;28;20042;-83
2021/12/12 09:06:16;;;;;;;22.40;13.13;;;6.80;99.90;;;;;;5031883;28;20049;-79
2021/12/12 09:08:58;;;;;;;31.08;16.30;;;6.70;99.90;;;;;;5031832;28;20140;-79
2021/12/12 09:11:29;;;;;;;60.42;25.48;;;6.80;99.90;;;;;;5032035;28;20069;-83
2021/12/12 09:14:03;;;;;;;63.22;25.95;;;6.80;99.90;;;;;;5031876;28;20045;-82
2021/12/12 09:16:38;;;;;;;28.95;14.32;;;6.90;99.90;;;;;;5031901;28;20054;-79
2021/12/12 09:19:09;;;;;;;41.90;18.50;;;6.90;99.90;;;;;;5031868;28;20085;-82
2021/12/12 09:22:17;;;;;;;40.83;17.42;;;7.10;99.90;;;;;;5031725;28;20103;-82
2021/12/12 09:24:49;;;;;;;53.17;22.42;;;7.00;99.90;;;;;;5011737;28;20065;-79
2021/12/12 09:27:27;;;;;;;49.85;21.13;;;7.10;99.90;;;;;;5031703;28;20045;-78
2021/12/12 09:30:03;;;;;;;82.75;29.02;;;7.10;99.90;;;;;;5031801;28;20049;-78
2021/12/12 09:32:44;;;;;;;34.88;16.10;;;7.20;99.90;;;;;;5031280;28;20087;-82
2021/12/12 09:35:39;;;;;;;74.20;24.45;;;7.20;99.90;;;;;;5031782;28;20492;-83
2021/12/12 09:38:11;;;;;;;82.05;28.05;;;7.20;99.90;;;;;;5031375;28;20091;-78
2021/12/12 09:40:56;;;;;;;42.20;16.83;;;7.30;99.90;;;;;;5031555;28;20049;-79
2021/12/12 09:43:48;;;;;;;25.92;12.30;;;7.30;99.90;;;;;;5031721;28;20050;-79
2021/12/12 09:46:41;;;;;;;41.90;16.95;;;7.40;99.90;;;;;;5031447;28;20053;-82
2021/12/12 09:53:26;;;;;;;56.47;23.67;;;7.50;99.90;;;;;;5031438;28;20053;-79
2021/12/12 09:56:11;;;;;;;60.40;25.08;;;7.60;99.90;;;;;;4969088;28;20560;-82
2021/12/12 09:58:54;;;;;;;28.65;12.70;;;7.70;99.90;;;;;;5026775;28;20054;-78
2021/12/12 10:01:52;;;;;;;37.50;16.27;;;7.60;99.90;;;;;;5031750;28;20045;-82
2021/12/12 10:04:36;;;;;;;39.85;17.48;;;7.80;99.90;;;;;;5029382;28;20396;-78
2021/12/12 10:07:13;;;;;;;30.98;12.90;;;7.70;99.90;;;;;;5031417;28;20084;-79
2021/12/12 10:10:14;;;;;;;36.88;15.90;;;7.90;99.90;;;;;;5031282;28;20057;-78
2021/12/12 10:12:48;;;;;;;19.63;8.95;;;8.00;99.90;;;;;;5008419;28;20400;-82
2021/12/12 10:15:22;;;;;;;48.30;18.90;;;8.00;99.90;;;;;;5031202;28;20231;-78
2021/12/12 10:18:00;;;;;;;20.52;11.30;;;7.90;99.90;;;;;;5030994;28;20046;-82
2021/12/12 10:20:41;;;;;;;35.60;17.27;;;8.00;99.90;;;;;;5031546;28;20567;-82
2021/12/12 10:23:16;;;;;;;24.33;11.63;;;8.00;99.90;;;;;;5031394;28;20455;-82
2021/12/12 10:25:58;;;;;;;28.58;14.43;;;8.00;99.90;;;;;;5031220;28;20123;-82
2021/12/12 10:28:37;;;;;;;15.65;9.43;;;8.00;99.90;;;;;;5014871;28;20111;-82
2021/12/12 10:31:11;;;;;;;29.77;13.80;;;8.10;99.90;;;;;;5031202;28;20052;-82
2021/12/12 10:33:46;;;;;;;35.80;14.07;;;8.00;99.90;;;;;;5031019;28;20049;-78
2021/12/12 10:36:20;;;;;;;18.45;8.45;;;8.00;99.90;;;;;;5031477;28;20514;-82
2021/12/12 10:39:02;;;;;;;24.35;11.55;;;8.20;99.90;;;;;;5030954;28;20096;-78
2021/12/12 10:41:46;;;;;;;17.00;7.18;;;8.10;99.90;;;;;;5031295;28;20037;-82
2021/12/12 10:44:15;;;;;;;26.95;11.98;;;8.20;99.90;;;;;;5031916;28;20041;-78
2021/12/12 10:46:50;;;;;;;30.50;13.75;;;8.20;99.90;;;;;;5034386;28;20120;-82
2021/12/12 10:49:23;;;;;;;15.57;7.53;;;8.20;99.90;;;;;;5034618;28;20041;-82
2021/12/12 10:51:56;;;;;;;25.75;10.13;;;8.20;99.90;;;;;;5034728;28;20431;-82
2021/12/12 10:54:29;;;;;;;19.98;9.18;;;8.10;99.90;;;;;;5034768;28;20376;-78
2021/12/12 10:57:04;;;;;;;27.08;13.10;;;8.20;99.90;;;;;;5034398;28;20068;-78
2021/12/12 10:59:35;;;;;;;18.30;9.27;;;8.30;99.90;;;;;;5034398;28;20050;-78
2021/12/12 11:02:08;;;;;;;17.65;10.00;;;8.50;99.90;;;;;;5034601;28;20049;-78
2021/12/12 11:04:42;;;;;;;35.65;17.20;;;8.30;99.90;;;;;;5034205;28;20049;-81
2021/12/12 11:07:21;;;;;;;30.35;13.40;;;8.30;99.90;;;;;;5034241;28;20045;-78
2021/12/12 11:10:05;;;;;;;13.05;6.82;;;8.40;99.90;;;;;;5034475;28;20081;-78
2021/12/12 11:12:57;;;;;;;22.08;10.93;;;8.40;99.90;;;;;;5017690;28;20037;-82
2021/12/12 11:15:47;;;;;;;14.35;7.53;;;8.50;99.90;;;;;;5034141;28;20049;-81
2021/12/12 11:18:24;;;;;;;27.88;12.35;;;8.40;99.90;;;;;;5033905;28;20045;-82
2021/12/12 11:20:56;;;;;;;19.33;7.50;;;8.50;99.90;;;;;;5050438;28;20056;-82
2021/12/12 11:23:41;;;;;;;18.73;8.75;;;8.60;99.90;;;;;;5033947;28;20052;-78
2021/12/12 11:26:12;;;;;;;13.70;7.15;;;8.80;99.90;;;;;;5016907;28;20527;-82
2021/12/12 11:28:46;;;;;;;26.92;12.48;;;8.70;99.90;;;;;;5033787;28;20056;-78
2021/12/12 11:31:32;;;;;;;;;;;8.70;99.90;;;;;;5034465;28;20056;-82
2021/12/12 11:33:59;;;;;;;17.90;8.77;;;8.80;99.90;;;;;;5017038;28;19971;-82
2021/12/12 11:37:03;;;;;;;34.05;15.20;;;8.90;99.90;;;;;;5033774;28;20132;-79
2021/12/12 11:39:39;;;;;;;20.90;10.90;;;8.90;99.90;;;;;;4999013;28;20058;-82
2021/12/12 11:42:17;;;;;;;20.63;10.00;;;8.80;99.90;;;;;;5033521;28;20049;-78
2021/12/12 11:45:09;;;;;;;18.17;9.32;;;8.90;99.90;;;;;;5033489;28;20041;-78
2021/12/12 11:48:08;;;;;;;12.55;7.38;;;9.00;99.90;;;;;;5033187;28;20115;-78
2021/12/12 11:50:52;;;;;;;16.48;9.43;;;9.00;99.90;;;;;;5033556;28;20049;-82
2021/12/12 11:53:41;;;;;;;20.85;11.30;;;9.10;99.90;;;;;;5033350;28;20049;-78
2021/12/12 11:56:18;;;;;;;23.65;11.70;;;9.00;99.90;;;;;;5033309;28;20053;-78
2021/12/12 11:59:07;;;;;;;12.98;7.15;;;9.10;99.90;;;;;;5033080;28;20049;-78
2021/12/12 12:01:51;;;;;;;16.98;9.45;;;9.00;99.90;;;;;;5033190;28;20049;-78
2021/12/12 12:04:36;;;;;;;17.27;9.07;;;9.20;99.90;;;;;;5033185;28;20081;-82
2021/12/12 12:07:15;;;;;;;23.65;12.20;;;9.20;99.90;;;;;;5033432;28;20430;-78
2021/12/12 12:09:50;;;;;;;15.38;9.35;;;9.30;99.90;;;;;;5033166;28;20128;-83
2021/12/12 12:12:31;;;;;;;11.85;6.78;;;9.20;99.90;;;;;;5033065;28;20054;-78
2021/12/12 12:15:23;;;;;;;13.60;7.72;;;9.30;99.90;;;;;;5033106;28;20056;-78
2021/12/12 12:18:01;;;;;;;12.43;7.05;;;9.20;99.90;;;;;;5033024;28;20583;-82
2021/12/12 12:20:36;;;;;;;9.90;5.60;;;9.30;99.90;;;;;;5033125;28;20401;-83
2021/12/12 12:23:18;;;;;;;20.85;11.30;;;9.20;99.90;;;;;;5032863;28;20396;-78
2021/12/12 12:28:56;;;;;;;13.75;8.27;;;9.20;99.90;;;;;;5046429;28;20515;-79
2021/12/12 12:31:37;;;;;;;15.65;8.50;;;9.10;99.90;;;;;;5030924;28;20044;-79
2021/12/12 12:34:39;;;;;;;16.50;8.32;;;9.10;99.90;;;;;;5031950;28;20135;-78
2021/12/12 12:37:43;;;;;;;14.43;7.88;;;9.10;99.90;;;;;;5014502;28;20052;-78
2021/12/12 12:40:38;;;;;;;15.63;8.55;;;9.10;99.90;;;;;;5030685;28;20048;-79
2021/12/12 12:43:41;;;;;;;20.40;8.88;;;9.20;99.90;;;;;;4977963;28;20065;-79
2021/12/12 12:46:37;;;;;;;22.58;12.15;;;9.20;99.90;;;;;;5034907;28;20113;-78
2021/12/12 12:49:43;;;;;;;17.42;9.60;;;9.10;99.90;;;;;;5048911;28;20057;-83
2021/12/12 12:52:21;;;;;;;7.97;4.38;;;9.00;99.90;;;;;;5031392;28;20273;-82
2021/12/12 12:54:59;;;;;;;20.80;10.20;;;9.10;99.90;;;;;;5031628;28;20038;-82
2021/12/12 12:57:38;;;;;;;18.75;10.52;;;9.20;99.90;;;;;;5031627;28;20474;-82
2021/12/12 13:00:20;;;;;;;11.65;6.90;;;9.10;99.90;;;;;;5031707;28;20064;-79
2021/12/12 13:02:55;;;;;;;10.80;6.50;;;9.10;99.90;;;;;;5013524;28;20515;-82
2021/12/12 13:05:51;;;;;;;23.02;12.35;;;9.10;99.90;;;;;;5047479;28;20060;-83
2021/12/12 13:08:47;;;;;;;14.85;8.80;;;9.20;99.90;;;;;;5025329;28;20053;-83
2021/12/12 13:11:27;;;;;;;18.05;10.05;;;9.10;99.90;;;;;;5014978;28;20041;-79
2021/12/12 13:14:12;;;;;;;19.58;10.25;;;9.10;99.90;;;;;;5015274;28;20045;-78
2021/12/12 13:16:52;;;;;;;16.30;9.07;;;9.10;99.90;;;;;;5046958;28;20073;-83
2021/12/12 13:19:26;;;;;;;14.05;7.38;;;9.20;99.90;;;;;;5031268;28;20041;-82
2021/12/12 13:22:17;;;;;;;11.13;5.47;;;9.20;99.90;;;;;;5047686;28;20135;-82
2021/12/12 13:25:09;;;;;;;13.25;7.47;;;9.20;99.90;;;;;;5011509;28;20100;-79
2021/12/12 13:28:08;;;;;;;8.40;5.38;;;9.30;99.90;;;;;;5011727;28;20129;-82
2021/12/12 13:30:42;;;;;;;16.08;9.05;;;9.40;99.90;;;;;;5001713;28;20049;-79
2021/12/12 13:33:21;;;;;;;18.38;9.88;;;9.30;99.90;;;;;;5030629;28;20050;-83
2021/12/12 13:36:01;;;;;;;18.10;9.40;;;9.40;99.90;;;;;;5014487;28;20462;-83
2021/12/12 13:39:05;;;;;;;10.90;6.68;;;9.30;99.90;;;;;;5047150;28;20116;-79
2021/12/12 13:41:52;;;;;;;11.50;6.25;;;9.50;99.90;;;;;;5002219;28;20058;-79